createdAt,value
2018-08-28T00:01:41.300Z,19.62
2018-08-28T00:04:15.812Z,19.60
2018-08-28T00:06:50.824Z,19.61
2018-08-28T00:09:25.225Z,19.54
2018-08-28T00:11:59.652Z,19.52
2018-08-28T00:14:33.952Z,19.47
2018-08-28T00:17:08.494Z,19.41
2018-08-28T00:19:43.359Z,19.32
2018-08-28T00:22:18.228Z,19.26
2018-08-28T00:24:52.648Z,19.22
2018-08-28T00:27:27.109Z,19.19
2018-08-28T00:30:01.759Z,19.22
2018-08-28T00:32:36.259Z,19.16
2018-08-28T00:35:10.840Z,19.13
2018-08-28T00:37:45.633Z,19.13
2018-08-28T00:40:20.091Z,19.13
2018-08-28T00:42:54.537Z,19.10
2018-08-28T00:45:29.399Z,19.08
2018-08-28T00:48:04.120Z,19.12
2018-08-28T00:50:38.804Z,19.08
2018-08-28T00:53:13.213Z,19.05
2018-08-28T00:55:47.659Z,19.05
2018-08-28T00:58:22.396Z,19.07
2018-08-28T01:00:56.955Z,19.04
2018-08-28T01:03:31.482Z,18.98
2018-08-28T01:06:05.984Z,18.93
2018-08-28T01:08:40.454Z,18.92
2018-08-28T01:11:14.842Z,18.85
2018-08-28T01:13:49.491Z,18.93
2018-08-28T01:16:24.183Z,18.83
2018-08-28T01:18:58.993Z,18.76
2018-08-28T01:21:33.830Z,18.69
2018-08-28T01:24:08.704Z,18.78
2018-08-28T01:26:43.096Z,18.69
2018-08-28T01:29:18.115Z,18.61
2018-08-28T01:31:53.042Z,18.55
2018-08-28T01:34:27.479Z,18.52
2018-08-28T01:37:01.965Z,18.50
2018-08-28T01:39:36.468Z,18.44
2018-08-28T01:42:11.002Z,18.42
2018-08-28T01:44:46.192Z,18.33
2018-08-28T01:47:21.338Z,18.29
2018-08-28T01:49:56.216Z,18.27
2018-08-28T01:52:30.738Z,18.24
2018-08-28T01:55:05.068Z,18.18
2018-08-28T01:57:39.588Z,18.16
2018-08-28T02:00:14.091Z,18.14
2018-08-28T02:02:48.531Z,18.10
2018-08-28T02:05:22.871Z,18.08
2018-08-28T02:07:57.196Z,17.99
2018-08-28T02:10:31.635Z,17.87
2018-08-28T02:13:06.391Z,17.82
2018-08-28T02:15:40.948Z,17.80
2018-08-28T02:18:15.539Z,17.77
2018-08-28T02:20:50.784Z,17.72
2018-08-28T02:23:25.243Z,17.66
2018-08-28T02:25:59.736Z,17.58
2018-08-28T02:28:34.157Z,17.51
2018-08-28T02:31:08.516Z,17.47
2018-08-28T02:33:42.980Z,17.41
2018-08-28T02:36:17.984Z,17.36
2018-08-28T02:38:52.904Z,17.37
2018-08-28T02:41:27.784Z,17.31
2018-08-28T02:44:02.752Z,17.28
2018-08-28T02:46:37.495Z,17.27
2018-08-28T02:49:11.942Z,17.28
2018-08-28T02:54:20.173Z,17.32
2018-08-28T02:56:54.590Z,17.27
2018-08-28T02:59:32.131Z,17.26
2018-08-28T03:02:06.976Z,17.20
2018-08-28T03:04:41.449Z,17.14
2018-08-28T03:07:16.120Z,17.15
2018-08-28T03:12:23.809Z,17.09
2018-08-28T03:14:58.533Z,17.07
2018-08-28T03:17:33.276Z,16.97
2018-08-28T03:20:08.581Z,16.84
2018-08-28T03:22:42.875Z,16.76
2018-08-28T03:25:17.191Z,16.70
2018-08-28T03:27:52.172Z,16.63
2018-08-28T03:30:26.554Z,16.62
2018-08-28T03:33:01.309Z,16.61
2018-08-28T03:35:35.993Z,16.57
2018-08-28T03:38:10.731Z,16.52
2018-08-28T03:40:45.132Z,16.46
2018-08-28T03:43:19.854Z,16.44
2018-08-28T03:45:54.986Z,16.38
2018-08-28T03:48:29.351Z,16.36
2018-08-28T03:51:03.908Z,16.33
2018-08-28T03:53:38.296Z,16.39
2018-08-28T03:56:12.717Z,16.33
2018-08-28T03:58:47.296Z,16.24
2018-08-28T04:01:22.327Z,16.23
2018-08-28T04:03:56.971Z,16.16
2018-08-28T04:06:31.861Z,16.09
2018-08-28T04:09:07.620Z,16.04
2018-08-28T04:11:42.095Z,16.02
2018-08-28T04:14:16.734Z,16.00
2018-08-28T04:16:51.467Z,15.92
2018-08-28T04:19:26.367Z,15.84
2018-08-28T04:22:00.820Z,15.83
2018-08-28T04:24:35.647Z,15.90
2018-08-28T04:27:10.835Z,15.82
2018-08-28T04:29:45.231Z,15.78
2018-08-28T04:32:19.544Z,15.77
2018-08-28T04:34:53.875Z,15.83
2018-08-28T04:37:28.194Z,15.84
2018-08-28T04:40:02.513Z,15.88
2018-08-28T04:42:36.970Z,15.99
2018-08-28T04:45:11.633Z,15.97
2018-08-28T04:47:46.063Z,16.00
2018-08-28T04:50:20.582Z,16.10
2018-08-28T04:52:55.420Z,16.18
2018-08-28T04:55:30.355Z,16.24
2018-08-28T04:58:05.236Z,16.32
2018-08-28T05:00:39.664Z,16.40
2018-08-28T05:03:14.616Z,16.52
2018-08-28T05:05:49.107Z,16.58
2018-08-28T05:08:23.851Z,16.66
2018-08-28T05:10:58.264Z,16.71
2018-08-28T05:13:32.968Z,16.78
2018-08-28T05:16:07.535Z,16.85
2018-08-28T05:18:42.100Z,16.94
2018-08-28T05:21:16.525Z,17.00
2018-08-28T05:23:51.219Z,17.07
2018-08-28T05:26:25.643Z,17.13
2018-08-28T05:29:00.487Z,17.24
2018-08-28T05:31:34.800Z,17.31
2018-08-28T05:34:09.137Z,17.39
2018-08-28T05:36:43.808Z,17.43
2018-08-28T05:39:18.332Z,17.47
2018-08-28T05:41:52.696Z,17.53
2018-08-28T05:44:27.172Z,17.57
2018-08-28T05:47:01.495Z,17.69
2018-08-28T05:49:35.930Z,17.78
2018-08-28T05:52:11.031Z,17.89
2018-08-28T05:54:45.435Z,18.08
2018-08-28T05:57:19.742Z,18.23
2018-08-28T05:59:54.016Z,18.31
2018-08-28T06:02:28.540Z,18.35
2018-08-28T06:05:03.349Z,18.40
2018-08-28T06:07:38.151Z,18.50
2018-08-28T06:10:12.985Z,18.60
2018-08-28T06:12:47.371Z,18.69
2018-08-28T06:15:22.168Z,18.77
2018-08-28T06:17:56.833Z,18.84
2018-08-28T06:20:31.928Z,18.88
2018-08-28T06:23:06.972Z,18.95
2018-08-28T06:25:41.807Z,19.08
2018-08-28T06:28:16.503Z,19.18
2018-08-28T06:30:51.035Z,19.33
2018-08-28T06:33:25.920Z,19.50
2018-08-28T06:36:00.403Z,19.70
2018-08-28T06:38:35.135Z,19.81
2018-08-28T06:41:09.811Z,19.93
2018-08-28T06:43:44.522Z,20.04
2018-08-28T06:46:19.479Z,20.07
2018-08-28T06:48:54.083Z,20.10
2018-08-28T06:51:28.539Z,20.14
2018-08-28T06:54:03.185Z,20.08
2018-08-28T06:56:37.667Z,20.16
2018-08-28T06:59:12.383Z,20.20
2018-08-28T07:01:47.188Z,20.38
2018-08-28T07:04:22.041Z,20.47
2018-08-28T07:06:56.843Z,20.57
2018-08-28T07:09:31.199Z,20.60
2018-08-28T07:12:05.680Z,20.59
2018-08-28T07:14:40.179Z,20.50
2018-08-28T07:17:14.499Z,20.58
2018-08-28T07:19:49.175Z,20.60
2018-08-28T07:22:24.516Z,20.63
2018-08-28T07:24:59.002Z,20.58
2018-08-28T07:27:33.569Z,20.58
2018-08-28T07:30:08.083Z,20.66
2018-08-28T07:32:42.494Z,20.69
2018-08-28T07:35:17.009Z,20.78
2018-08-28T07:37:51.440Z,20.99
2018-08-28T07:40:25.724Z,21.32
2018-08-28T07:43:00.074Z,21.42
2018-08-28T07:45:34.975Z,21.56
2018-08-28T07:48:09.897Z,21.61
2018-08-28T07:50:44.290Z,21.69
2018-08-28T07:53:19.374Z,21.68
2018-08-28T07:55:53.820Z,21.80
2018-08-28T07:58:28.488Z,21.99
2018-08-28T08:01:03.076Z,22.18
2018-08-28T08:03:38.256Z,22.23
2018-08-28T08:06:12.926Z,22.27
2018-08-28T08:08:47.424Z,22.21
2018-08-28T08:11:21.734Z,22.18
2018-08-28T08:13:56.420Z,22.19
2018-08-28T08:16:30.807Z,22.09
2018-08-28T08:19:05.488Z,22.08
2018-08-28T08:21:39.798Z,22.10
2018-08-28T08:24:14.284Z,22.11
2018-08-28T08:26:48.635Z,22.32
2018-08-28T08:29:23.228Z,22.58
2018-08-28T08:31:57.496Z,22.75
2018-08-28T08:34:31.811Z,22.93
2018-08-28T08:37:06.260Z,23.09
2018-08-28T08:39:40.655Z,23.19
2018-08-28T08:42:14.960Z,23.37
2018-08-28T08:44:49.665Z,23.70
2018-08-28T08:47:24.505Z,24.01
2018-08-28T08:49:58.920Z,24.19
2018-08-28T08:52:33.771Z,24.47
2018-08-28T08:55:08.737Z,24.57
2018-08-28T08:57:43.168Z,24.91
2018-08-28T09:00:17.590Z,24.98
2018-08-28T09:02:52.357Z,25.23
2018-08-28T09:05:26.996Z,25.52
2018-08-28T09:08:01.555Z,25.57
2018-08-28T09:10:36.499Z,25.51
2018-08-28T09:13:10.972Z,25.27
2018-08-28T09:15:45.753Z,25.08
2018-08-28T09:18:21.116Z,25.11
2018-08-28T09:20:55.963Z,25.33
2018-08-28T09:23:30.356Z,25.65
2018-08-28T09:26:05.201Z,25.94
2018-08-28T09:28:39.515Z,26.14
2018-08-28T09:31:14.553Z,26.39
2018-08-28T09:33:49.769Z,26.59
2018-08-28T09:36:24.510Z,26.67
2018-08-28T09:38:58.853Z,26.58
2018-08-28T09:41:33.314Z,26.77
2018-08-28T09:44:07.964Z,26.82
2018-08-28T09:46:42.495Z,27.03
2018-08-28T09:49:16.795Z,26.79
2018-08-28T09:51:51.445Z,26.93
2018-08-28T09:54:26.164Z,26.87
2018-08-28T09:57:00.468Z,26.76
2018-08-28T09:59:34.841Z,26.73
2018-08-28T10:02:10.054Z,26.66
2018-08-28T10:04:44.503Z,26.26
2018-08-28T10:07:19.687Z,26.25
2018-08-28T10:09:54.108Z,26.31
2018-08-28T10:12:28.740Z,26.13
2018-08-28T10:15:03.244Z,26.00
2018-08-28T10:17:38.295Z,25.54
2018-08-28T10:20:12.735Z,25.27
2018-08-28T10:22:47.778Z,25.21
2018-08-28T10:25:22.483Z,25.33
2018-08-28T10:27:56.785Z,25.26
2018-08-28T10:30:31.715Z,25.07
2018-08-28T10:33:06.779Z,24.85
2018-08-28T10:35:41.194Z,24.64
2018-08-28T10:38:15.868Z,24.55
2018-08-28T10:40:50.572Z,24.40
2018-08-28T10:43:25.203Z,24.28
2018-08-28T10:46:00.069Z,24.36
2018-08-28T10:48:35.019Z,24.34
2018-08-28T10:51:10.289Z,24.32
2018-08-28T10:53:45.324Z,24.47
2018-08-28T10:56:19.616Z,24.94
2018-08-28T10:58:55.136Z,25.10
2018-08-28T11:01:29.772Z,25.09
2018-08-28T11:04:04.200Z,25.49
2018-08-28T11:06:38.649Z,26.10
2018-08-28T11:09:15.535Z,26.76
2018-08-28T11:11:50.368Z,27.23
2018-08-28T11:14:25.206Z,27.56
2018-08-28T11:16:59.571Z,27.67
2018-08-28T11:22:37.128Z,28.58
2018-08-28T11:25:11.515Z,28.73
2018-08-28T11:27:46.388Z,29.12
2018-08-28T11:30:21.263Z,29.38
2018-08-28T11:32:55.850Z,29.51
2018-08-28T11:35:30.639Z,29.83
2018-08-28T11:38:05.287Z,29.91
2018-08-28T11:40:39.699Z,30.07
2018-08-28T11:43:14.575Z,30.24
2018-08-28T11:45:49.382Z,29.67
2018-08-28T11:48:23.683Z,29.24
2018-08-28T11:50:57.991Z,29.46
2018-08-28T11:53:32.487Z,29.35
2018-08-28T11:56:07.216Z,29.60
2018-08-28T11:58:42.087Z,29.77
2018-08-28T12:01:17.148Z,29.97
2018-08-28T12:03:52.093Z,29.86
2018-08-28T12:06:27.204Z,29.57
2018-08-28T12:09:01.834Z,28.85
2018-08-28T12:11:36.784Z,28.68
2018-08-28T12:14:11.394Z,28.17
2018-08-28T12:16:46.209Z,28.57
2018-08-28T12:19:21.163Z,28.40
2018-08-28T12:21:55.703Z,28.23
2018-08-28T12:24:30.060Z,27.91
2018-08-28T12:27:05.609Z,28.17
2018-08-28T12:29:40.018Z,28.70
2018-08-28T12:32:14.898Z,29.37
2018-08-28T12:34:49.781Z,29.97
2018-08-28T12:37:24.683Z,30.30
2018-08-28T12:39:59.491Z,30.73
2018-08-28T12:42:33.799Z,30.56
2018-08-28T12:45:08.232Z,30.49
2018-08-28T12:47:42.480Z,30.92
2018-08-28T12:50:17.135Z,31.29
2018-08-28T12:52:52.024Z,31.68
2018-08-28T12:55:26.852Z,31.95
2018-08-28T12:58:01.520Z,31.70
2018-08-28T13:00:36.294Z,31.86
2018-08-28T13:03:11.483Z,31.70
2018-08-28T13:05:47.079Z,30.74
2018-08-28T13:08:21.647Z,30.43
2018-08-28T13:10:55.995Z,30.68
2018-08-28T13:13:30.382Z,30.58
2018-08-28T13:16:04.829Z,30.44
2018-08-28T13:18:39.247Z,30.49
2018-08-28T13:21:13.918Z,30.21
2018-08-28T13:23:48.612Z,29.59
2018-08-28T13:26:23.255Z,29.25
2018-08-28T13:28:57.989Z,28.96
2018-08-28T13:31:32.796Z,28.31
2018-08-28T13:34:07.395Z,28.04
2018-08-28T13:36:42.394Z,27.92
2018-08-28T13:39:17.668Z,28.16
2018-08-28T13:41:52.631Z,28.56
2018-08-28T13:44:27.096Z,29.14
2018-08-28T13:47:01.605Z,29.38
2018-08-28T13:49:36.393Z,29.66
2018-08-28T13:52:11.119Z,30.12
2018-08-28T13:54:45.448Z,30.21
2018-08-28T13:57:19.855Z,30.17
2018-08-28T13:59:54.746Z,30.67
2018-08-28T14:02:29.975Z,30.80
2018-08-28T14:05:04.953Z,30.73
2018-08-28T14:07:39.396Z,30.92
2018-08-28T14:10:14.661Z,30.44
2018-08-28T14:12:49.351Z,29.87
2018-08-28T14:15:23.842Z,29.77
2018-08-28T14:17:58.581Z,29.86
2018-08-28T14:20:33.577Z,30.15
2018-08-28T14:23:09.096Z,30.32
2018-08-28T14:25:43.402Z,30.43
2018-08-28T14:28:17.831Z,30.31
2018-08-28T14:30:52.487Z,29.69
2018-08-28T14:33:27.692Z,29.72
2018-08-28T14:36:03.224Z,30.03
2018-08-28T14:38:38.010Z,29.67
2018-08-28T14:41:13.059Z,29.47
2018-08-28T14:43:47.635Z,29.48
2018-08-28T14:46:21.899Z,29.38
2018-08-28T14:48:56.578Z,29.36
2018-08-28T14:51:31.448Z,29.41
2018-08-28T14:54:06.319Z,29.62
2018-08-28T14:56:41.225Z,29.45
2018-08-28T14:59:15.732Z,29.43
2018-08-28T15:01:50.648Z,29.19
2018-08-28T15:04:25.469Z,28.94
2018-08-28T15:06:59.838Z,28.72
2018-08-28T15:09:34.608Z,28.65
2018-08-28T15:12:09.116Z,28.72
2018-08-28T15:14:43.525Z,28.70
2018-08-28T15:17:18.348Z,28.26
2018-08-28T15:19:53.266Z,28.27
2018-08-28T15:22:27.940Z,28.34
2018-08-28T15:25:02.663Z,28.55
2018-08-28T15:27:37.406Z,28.62
2018-08-28T15:30:12.379Z,28.54
2018-08-28T15:32:47.346Z,28.38
2018-08-28T15:35:22.081Z,28.41
2018-08-28T15:37:56.599Z,28.58
2018-08-28T15:40:31.455Z,28.53
2018-08-28T15:43:06.924Z,28.17
2018-08-28T15:45:41.797Z,28.08
2018-08-28T15:48:16.278Z,27.74
2018-08-28T15:50:51.599Z,27.71
2018-08-28T15:53:26.096Z,27.81
2018-08-28T15:56:01.219Z,27.76
2018-08-28T15:58:35.975Z,27.88
2018-08-28T16:01:10.707Z,27.79
2018-08-28T16:03:45.342Z,27.71
2018-08-28T16:06:20.400Z,27.47
2018-08-28T16:08:54.738Z,27.33
2018-08-28T16:11:29.461Z,27.18
2018-08-28T16:14:03.864Z,27.17
2018-08-28T16:16:38.270Z,27.22
2018-08-28T16:19:12.978Z,27.09
2018-08-28T16:21:50.761Z,27.12
2018-08-28T16:24:25.201Z,27.17
2018-08-28T16:26:59.940Z,27.19
2018-08-28T16:29:34.423Z,27.18
2018-08-28T16:32:09.352Z,27.07
2018-08-28T16:34:44.648Z,26.95
2018-08-28T16:37:19.223Z,26.94
2018-08-28T16:39:53.879Z,26.83
2018-08-28T16:42:28.594Z,26.67
2018-08-28T16:45:03.358Z,26.57
2018-08-28T16:47:37.806Z,26.45
2018-08-28T16:50:12.623Z,26.37
2018-08-28T16:52:47.067Z,26.21
2018-08-28T16:55:21.372Z,26.19
2018-08-28T16:57:56.157Z,26.02
2018-08-28T17:00:30.840Z,25.81
2018-08-28T17:03:06.208Z,25.70
2018-08-28T17:05:40.835Z,25.65
2018-08-28T17:08:15.731Z,25.59
2018-08-28T17:10:50.049Z,25.42
2018-08-28T17:13:25.083Z,25.27
2018-08-28T17:16:00.120Z,25.18
2018-08-28T17:18:34.718Z,25.11
2018-08-28T17:21:09.015Z,24.99
2018-08-28T17:23:43.985Z,24.86
2018-08-28T17:26:18.299Z,24.78
2018-08-28T17:28:52.868Z,24.64
2018-08-28T17:31:27.605Z,24.57
2018-08-28T17:34:02.367Z,24.41
2018-08-28T17:36:36.921Z,24.33
2018-08-28T17:39:11.690Z,24.27
2018-08-28T17:41:46.309Z,24.21
2018-08-28T17:44:20.638Z,24.09
2018-08-28T17:46:55.275Z,24.00
2018-08-28T17:49:29.808Z,23.92
2018-08-28T17:52:04.471Z,23.78
2018-08-28T17:54:39.183Z,23.64
2018-08-28T17:57:14.249Z,23.50
2018-08-28T17:59:48.907Z,23.40
2018-08-28T18:02:23.975Z,23.29
2018-08-28T18:04:58.576Z,23.21
2018-08-28T18:07:33.087Z,23.12
2018-08-28T18:10:07.853Z,23.03
2018-08-28T18:12:42.351Z,22.92
2018-08-28T18:15:17.089Z,22.77
2018-08-28T18:17:51.777Z,22.69
2018-08-28T18:20:26.347Z,22.55
2018-08-28T18:23:01.544Z,22.44
2018-08-28T18:25:36.300Z,22.30
2018-08-28T18:28:11.040Z,22.16
2018-08-28T18:30:46.368Z,22.08
2018-08-28T18:33:20.957Z,21.98
2018-08-28T18:35:55.719Z,21.85
2018-08-28T18:38:30.541Z,21.79
2018-08-28T18:41:05.692Z,21.77
2018-08-28T18:43:40.268Z,21.66
2018-08-28T18:46:14.813Z,21.62
2018-08-28T18:48:49.769Z,21.55
2018-08-28T18:51:24.642Z,21.47
2018-08-28T18:53:58.971Z,21.38
2018-08-28T18:56:33.596Z,21.32
2018-08-28T18:59:08.696Z,21.19
2018-08-28T19:01:43.160Z,21.09
2018-08-28T19:04:17.656Z,21.00
2018-08-28T19:06:51.980Z,20.91
2018-08-28T19:09:26.974Z,20.88
2018-08-28T19:12:02.610Z,20.82
2018-08-28T19:14:37.311Z,20.74
2018-08-28T19:17:11.860Z,20.70
2018-08-28T19:19:46.632Z,20.59
2018-08-28T19:22:21.095Z,20.56
2018-08-28T19:24:55.972Z,20.55
2018-08-28T19:27:30.925Z,20.50
2018-08-28T19:30:05.841Z,20.45
2018-08-28T19:32:40.447Z,20.42
2018-08-28T19:35:15.043Z,20.35
2018-08-28T19:37:50.328Z,20.24
2018-08-28T19:40:24.673Z,20.13
2018-08-28T19:42:59.546Z,20.03
2018-08-28T19:45:34.301Z,19.96
2018-08-28T19:48:09.132Z,19.88
2018-08-28T19:50:44.434Z,19.79
2018-08-28T19:53:19.146Z,19.70
2018-08-28T19:55:53.596Z,19.69
2018-08-28T19:58:27.981Z,19.63
2018-08-28T20:01:02.395Z,19.57
2018-08-28T20:03:37.223Z,19.46
2018-08-28T20:06:11.700Z,19.47
2018-08-28T20:08:46.119Z,19.43
2018-08-28T20:11:20.425Z,19.30
2018-08-28T20:13:55.226Z,19.23
2018-08-28T20:16:29.524Z,19.18
2018-08-28T20:19:04.169Z,19.12
2018-08-28T20:21:38.940Z,19.06
2018-08-28T20:24:13.323Z,19.07
2018-08-28T20:26:48.410Z,19.05
2018-08-28T20:29:23.226Z,19.01
2018-08-28T20:31:58.386Z,18.95
2018-08-28T20:34:33.312Z,18.88
2018-08-28T20:37:07.713Z,18.79
2018-08-28T20:39:42.859Z,18.72
2018-08-28T20:42:17.638Z,18.67
2018-08-28T20:44:52.347Z,18.60
2018-08-28T20:47:27.016Z,18.54
2018-08-28T20:50:03.375Z,18.45
2018-08-28T20:52:38.100Z,18.48
2018-08-28T20:55:13.176Z,18.45
2018-08-28T20:57:47.730Z,18.38
2018-08-28T21:00:23.346Z,18.32
2018-08-28T21:02:58.284Z,18.27
2018-08-28T21:05:32.663Z,18.27
2018-08-28T21:10:41.000Z,18.16
2018-08-28T21:13:15.680Z,18.10
2018-08-28T21:15:50.392Z,18.00
2018-08-28T21:18:24.893Z,17.90
2018-08-28T21:20:59.456Z,17.81
2018-08-28T21:23:34.136Z,17.72
2018-08-28T21:26:09.199Z,17.66
2018-08-28T21:28:43.756Z,17.62
2018-08-28T21:31:18.753Z,17.58
2018-08-28T21:33:54.563Z,17.60
2018-08-28T21:36:29.280Z,17.55
2018-08-28T21:39:04.220Z,17.50
2018-08-28T21:41:39.460Z,17.47
2018-08-28T21:44:14.079Z,17.44
2018-08-28T21:46:49.914Z,17.39
2018-08-28T21:49:24.504Z,17.37
2018-08-28T21:51:59.071Z,17.36
2018-08-28T21:54:33.823Z,17.32
2018-08-28T21:57:08.457Z,17.30
2018-08-28T21:59:43.159Z,17.28
2018-08-28T22:02:17.567Z,17.28
2018-08-28T22:04:52.239Z,17.22
2018-08-28T22:07:33.353Z,17.16
2018-08-28T22:10:07.964Z,17.14
2018-08-28T22:12:42.456Z,17.14
2018-08-28T22:15:16.889Z,17.17
2018-08-28T22:17:51.349Z,17.14
2018-08-28T22:20:26.140Z,17.14
2018-08-28T22:23:00.545Z,17.21
2018-08-28T22:25:34.969Z,17.13
2018-08-28T22:28:09.528Z,17.14
2018-08-28T22:30:44.800Z,17.19
2018-08-28T22:33:22.840Z,17.12
2018-08-28T22:35:57.653Z,17.06
2018-08-28T22:38:32.783Z,17.17
2018-08-28T22:41:07.506Z,17.16
2018-08-28T22:43:43.076Z,17.07
2018-08-28T22:46:21.184Z,16.94
2018-08-28T22:48:55.851Z,16.85
2018-08-28T22:51:30.976Z,16.77
2018-08-28T22:54:05.804Z,16.72
2018-08-28T22:56:40.439Z,16.70
2018-08-28T22:59:14.891Z,16.68
2018-08-28T23:01:50.073Z,16.63
2018-08-28T23:04:25.269Z,16.72
2018-08-28T23:07:02.115Z,16.71
2018-08-28T23:09:37.829Z,16.78
2018-08-28T23:12:12.658Z,16.86
2018-08-28T23:14:47.344Z,16.77
2018-08-28T23:17:22.229Z,16.66
2018-08-28T23:19:56.984Z,16.62
2018-08-28T23:22:31.748Z,16.65
2018-08-28T23:25:06.812Z,16.62
2018-08-28T23:27:41.208Z,16.66
2018-08-28T23:30:15.564Z,16.56
2018-08-28T23:32:54.583Z,16.50
2018-08-28T23:35:29.147Z,16.46
2018-08-28T23:38:03.433Z,16.38
2018-08-28T23:40:37.919Z,16.30
2018-08-28T23:43:13.512Z,16.24
2018-08-28T23:45:47.912Z,16.17
2018-08-28T23:48:22.368Z,16.17
2018-08-28T23:50:57.583Z,16.10
2018-08-28T23:53:32.275Z,16.05
2018-08-28T23:56:08.062Z,16.00
2018-08-28T23:58:42.538Z,15.97
